TimeCEST,TemperatureF,Dew PointF,Humidity,Sea Level PressureIn,VisibilityMPH,Wind Direction,Wind SpeedMPH,Gust SpeedMPH,PrecipitationIn,Events,Conditions,WindDirDegrees,DateUTC
12:15 AM,60.8,55.4,82,29.68,6.2,North,1.2,-,N/A,Rain,Light Rain,360,2013-05-15 22:15:00
12:45 AM,60.8,55.4,82,29.65,6.2,NNE,2.3,-,N/A,,Mostly Cloudy,20,2013-05-15 22:45:00
1:15 AM,62.6,53.6,72,29.62,6.2,ENE,5.8,-,N/A,,Mostly Cloudy,60,2013-05-15 23:15:00
1:45 AM,64.4,51.8,64,29.59,6.2,ESE,11.5,-,N/A,,Mostly Cloudy,110,2013-05-15 23:45:00
2:15 AM,64.4,51.8,64,29.59,6.2,East,11.5,-,N/A,,Mostly Cloudy,100,2013-05-16 00:15:00
2:45 AM,64.4,51.8,64,29.59,6.2,ENE,9.2,-,N/A,,Mostly Cloudy,60,2013-05-16 00:45:00
3:15 AM,64.4,51.8,64,29.56,6.2,ENE,6.9,-,N/A,,Scattered Clouds,60,2013-05-16 01:15:00
3:45 AM,68.0,51.8,56,29.53,6.2,SE,20.7,33.4,N/A,,Mostly Cloudy,130,2013-05-16 01:45:00
4:15 AM,68.0,50.0,52,29.50,6.2,SE,23.0,38.0,N/A,,Scattered Clouds,140,2013-05-16 02:15:00
4:45 AM,66.2,51.8,60,29.50,6.2,SE,27.6,-,N/A,,Mostly Cloudy,130,2013-05-16 02:45:00
5:15 AM,64.4,57.2,77,29.47,6.2,SE,25.3,41.4,N/A,Rain,Light Rain,130,2013-05-16 03:15:00
5:45 AM,66.2,57.2,73,29.50,6.2,SE,18.4,33.4,N/A,Rain,Light Rain,130,2013-05-16 03:45:00
6:15 AM,64.4,59.0,83,29.50,6.2,SSE,24.2,-,N/A,Rain,Light Rain,150,2013-05-16 04:15:00
6:45 AM,60.8,57.2,88,29.53,6.2,SSE,20.7,32.2,N/A,Rain,Light Rain,160,2013-05-16 04:45:00
7:15 AM,60.8,59.0,94,29.50,5.0,SE,29.9,41.4,N/A,Rain,Light Rain,140,2013-05-16 05:15:00
7:45 AM,60.8,59.0,94,29.50,5.0,SE,29.9,43.7,N/A,Rain,Light Rain,130,2013-05-16 05:45:00
8:15 AM,60.8,59.0,94,29.50,5.0,SE,25.3,36.8,N/A,Rain,Light Rain,140,2013-05-16 06:15:00
8:45 AM,62.6,59.0,88,29.50,5.0,SSE,25.3,39.1,N/A,Rain,Light Rain,150,2013-05-16 06:45:00
9:15 AM,62.6,60.8,94,29.50,5.0,SE,29.9,-,N/A,Rain,Light Rain,130,2013-05-16 07:15:00
9:45 AM,64.4,60.8,88,29.50,6.2,SE,25.3,38.0,N/A,Rain,Light Rain,140,2013-05-16 07:45:00
10:15 AM,62.6,60.8,94,29.53,5.0,SE,26.5,38.0,N/A,Rain,Light Rain,140,2013-05-16 08:15:00
10:45 AM,62.6,60.8,94,29.53,5.0,SSE,24.2,38.0,N/A,Rain,Light Rain,150,2013-05-16 08:45:00
11:15 AM,64.4,60.8,88,29.56,5.0,SSE,25.3,38.0,N/A,Rain,Light Rain,150,2013-05-16 09:15:00
11:45 AM,64.4,62.6,94,29.56,5.0,SSE,21.9,-,N/A,Rain,Light Rain,150,2013-05-16 09:45:00
12:15 PM,64.4,59.0,83,29.53,5.0,SSE,13.8,-,N/A,Rain,Light Rain,150,2013-05-16 10:15:00
12:45 PM,66.2,60.8,83,29.53,5.0,SSE,16.1,-,N/A,Rain,Light Rain,150,2013-05-16 10:45:00
1:15 PM,66.2,60.8,83,29.53,5.0,SSE,17.3,-,N/A,Rain,Light Rain,150,2013-05-16 11:15:00
1:45 PM,68.0,59.0,73,29.56,6.2,SSE,16.1,-,N/A,,Mostly Cloudy,150,2013-05-16 11:45:00
2:15 PM,69.8,59.0,68,29.56,6.2,SSE,9.2,-,N/A,,Scattered Clouds,150,2013-05-16 12:15:00
2:45 PM,69.8,59.0,68,29.56,6.2,SSE,6.9,-,N/A,,Scattered Clouds,150,2013-05-16 12:45:00
3:15 PM,69.8,57.2,64,29.53,6.2,SE,8.1,-,N/A,,Scattered Clouds,130,2013-05-16 13:15:00
3:45 PM,71.6,57.2,60,29.53,6.2,South,5.8,-,N/A,,Scattered Clouds,170,2013-05-16 13:45:00
4:15 PM,71.6,55.4,57,29.53,6.2,SSW,4.6,-,N/A,,Scattered Clouds,200,2013-05-16 14:15:00
4:45 PM,71.6,55.4,57,29.53,6.2,SW,4.6,-,N/A,,Scattered Clouds,230,2013-05-16 14:45:00
5:15 PM,71.6,55.4,57,29.53,6.2,SW,4.6,-,N/A,,Scattered Clouds,220,2013-05-16 15:15:00
5:45 PM,71.6,55.4,57,29.53,6.2,SW,4.6,-,N/A,,Scattered Clouds,220,2013-05-16 15:45:00
6:15 PM,71.6,57.2,60,29.53,6.2,SW,4.6,-,N/A,,Scattered Clouds,230,2013-05-16 16:15:00
6:45 PM,71.6,57.2,60,29.53,6.2,West,3.5,-,N/A,,Scattered Clouds,260,2013-05-16 16:45:00
7:15 PM,71.6,55.4,57,29.53,6.2,West,3.5,-,N/A,,Mostly Cloudy,270,2013-05-16 17:15:00
7:45 PM,69.8,55.4,60,29.53,6.2,WNW,2.3,-,N/A,,Mostly Cloudy,290,2013-05-16 17:45:00
8:15 PM,69.8,55.4,60,29.53,6.2,WNW,3.5,-,N/A,,Mostly Cloudy,290,2013-05-16 18:15:00
8:45 PM,68.0,55.4,64,29.53,6.2,North,1.2,-,N/A,,Mostly Cloudy,360,2013-05-16 18:45:00
9:15 PM,68.0,57.2,68,29.53,6.2,East,1.2,-,N/A,,Mostly Cloudy,90,2013-05-16 19:15:00
9:45 PM,66.2,59.0,78,29.53,6.2,East,3.5,-,N/A,,Mostly Cloudy,90,2013-05-16 19:45:00
10:15 PM,64.4,59.0,83,29.53,6.2,Calm,Calm,-,N/A,,Scattered Clouds,0,2013-05-16 20:15:00
10:45 PM,64.4,59.0,83,29.53,6.2,ESE,4.6,-,N/A,,Partly Cloudy,110,2013-05-16 20:45:00
11:15 PM,62.6,59.0,88,29.53,6.2,ESE,3.5,-,N/A,,Partly Cloudy,120,2013-05-16 21:15:00
11:45 PM,62.6,59.0,88,29.53,6.2,South,4.6,-,N/A,,Partly Cloudy,170,2013-05-16 21:45:00